sensor_id;sensor_type;location;lat;lon;timestamp;pressure;altitude;pressure_sealevel;temperature;humidity
55916;BME280;41826;53.246;-6.670;2022-07-29T00:00:59;100849.34;;;15.23;100.00
55916;BME280;41826;53.246;-6.670;2022-07-29T00:03:25;100851.81;;;15.33;100.00
55916;BME280;41826;53.246;-6.670;2022-07-29T00:05:50;100850.31;;;15.30;100.00
55916;BME280;41826;53.246;-6.670;2022-07-29T00:08:18;100851.47;;;15.36;100.00
55916;BME280;41826;53.246;-6.670;2022-07-29T00:10:43;100843.34;;;15.37;100.00
55916;BME280;41826;53.246;-6.670;2022-07-29T00:13:09;100842.50;;;15.45;100.00
55916;BME280;41826;53.246;-6.670;2022-07-29T00:15:34;100842.50;;;15.45;100.00
55916;BME280;41826;53.246;-6.670;2022-07-29T00:17:59;100842.31;;;15.47;100.00
55916;BME280;41826;53.246;-6.670;2022-07-29T00:20:25;100838.69;;;15.48;100.00
55916;BME280;41826;53.246;-6.670;2022-07-29T00:22:50;100857.56;;;15.45;100.00
55916;BME280;41826;53.246;-6.670;2022-07-29T00:25:17;100856.41;;;15.39;100.00
55916;BME280;41826;53.246;-6.670;2022-07-29T00:27:42;100865.19;;;15.39;100.00
55916;BME280;41826;53.246;-6.670;2022-07-29T00:30:08;100870.28;;;15.41;100.00
55916;BME280;41826;53.246;-6.670;2022-07-29T00:32:33;100877.25;;;15.42;100.00
55916;BME280;41826;53.246;-6.670;2022-07-29T00:34:59;100871.94;;;15.42;100.00
55916;BME280;41826;53.246;-6.670;2022-07-29T00:37:43;100877.88;;;15.44;100.00
55916;BME280;41826;53.246;-6.670;2022-07-29T00:40:09;100874.41;;;15.44;100.00
55916;BME280;41826;53.246;-6.670;2022-07-29T00:42:45;100863.81;;;15.44;100.00
55916;BME280;41826;53.246;-6.670;2022-07-29T00:45:11;100866.44;;;15.52;100.00
55916;BME280;41826;53.246;-6.670;2022-07-29T00:47:37;100846.13;;;15.52;100.00
55916;BME280;41826;53.246;-6.670;2022-07-29T00:50:04;100859.16;;;15.54;100.00
55916;BME280;41826;53.246;-6.670;2022-07-29T00:52:29;100874.22;;;15.53;100.00
55916;BME280;41826;53.246;-6.670;2022-07-29T00:54:55;100868.78;;;15.47;100.00
55916;BME280;41826;53.246;-6.670;2022-07-29T00:57:21;100878.53;;;15.46;100.00
55916;BME280;41826;53.246;-6.670;2022-07-29T00:59:47;100878.91;;;15.35;100.00
55916;BME280;41826;53.246;-6.670;2022-07-29T01:02:12;100878.25;;;15.33;100.00
55916;BME280;41826;53.246;-6.670;2022-07-29T01:04:38;100873.78;;;15.33;100.00
55916;BME280;41826;53.246;-6.670;2022-07-29T01:07:04;100881.41;;;15.28;100.00
55916;BME280;41826;53.246;-6.670;2022-07-29T01:09:32;100877.63;;;15.23;100.00
55916;BME280;41826;53.246;-6.670;2022-07-29T01:11:58;100876.31;;;15.18;100.00
55916;BME280;41826;53.246;-6.670;2022-07-29T01:14:25;100880.28;;;15.14;100.00
55916;BME280;41826;53.246;-6.670;2022-07-29T01:16:59;100885.59;;;15.14;100.00
55916;BME280;41826;53.246;-6.670;2022-07-29T01:19:45;100883.78;;;15.07;100.00
55916;BME280;41826;53.246;-6.670;2022-07-29T01:28:31;100888.72;;;15.10;100.00
55916;BME280;41826;53.246;-6.670;2022-07-29T01:30:47;100884.56;;;15.15;100.00
55916;BME280;41826;53.246;-6.670;2022-07-29T01:33:17;100881.44;;;15.20;100.00
55916;BME280;41826;53.246;-6.670;2022-07-29T01:36:09;100882.75;;;15.16;100.00
55916;BME280;41826;53.246;-6.670;2022-07-29T01:38:35;100893.84;;;15.20;100.00
55916;BME280;41826;53.246;-6.670;2022-07-29T01:41:08;100894.66;;;15.20;100.00
55916;BME280;41826;53.246;-6.670;2022-07-29T01:43:39;100899.13;;;15.20;100.00
55916;BME280;41826;53.246;-6.670;2022-07-29T01:46:09;100891.81;;;15.22;100.00
55916;BME280;41826;53.246;-6.670;2022-07-29T01:48:42;100896.13;;;15.23;100.00
55916;BME280;41826;53.246;-6.670;2022-07-29T01:51:19;100891.19;;;15.20;100.00
55916;BME280;41826;53.246;-6.670;2022-07-29T01:54:01;100896.44;;;15.28;100.00
55916;BME280;41826;53.246;-6.670;2022-07-29T01:56:28;100900.59;;;15.22;100.00
55916;BME280;41826;53.246;-6.670;2022-07-29T01:58:58;100898.13;;;15.21;100.00
55916;BME280;41826;53.246;-6.670;2022-07-29T02:01:25;100898.59;;;15.24;100.00
55916;BME280;41826;53.246;-6.670;2022-07-29T02:03:52;100900.09;;;15.27;100.00
55916;BME280;41826;53.246;-6.670;2022-07-29T02:06:21;100904.03;;;15.31;100.00
55916;BME280;41826;53.246;-6.670;2022-07-29T02:08:48;100895.44;;;15.37;100.00
55916;BME280;41826;53.246;-6.670;2022-07-29T02:11:14;100890.13;;;15.45;100.00
55916;BME280;41826;53.246;-6.670;2022-07-29T02:13:40;100871.56;;;15.53;100.00
55916;BME280;41826;53.246;-6.670;2022-07-29T02:16:08;100886.78;;;15.51;100.00
55916;BME280;41826;53.246;-6.670;2022-07-29T02:18:36;100895.38;;;15.53;100.00
55916;BME280;41826;53.246;-6.670;2022-07-29T02:21:02;100884.78;;;15.53;100.00
55916;BME280;41826;53.246;-6.670;2022-07-29T02:23:30;100868.22;;;15.59;100.00
55916;BME280;41826;53.246;-6.670;2022-07-29T02:25:57;100882.81;;;15.55;100.00
55916;BME280;41826;53.246;-6.670;2022-07-29T02:28:26;100883.16;;;15.52;100.00
55916;BME280;41826;53.246;-6.670;2022-07-29T02:30:54;100895.41;;;15.45;100.00
55916;BME280;41826;53.246;-6.670;2022-07-29T02:33:22;100911.47;;;15.35;100.00
55916;BME280;41826;53.246;-6.670;2022-07-29T02:35:49;100909.34;;;15.31;100.00
55916;BME280;41826;53.246;-6.670;2022-07-29T02:38:16;100921.25;;;15.27;100.00
55916;BME280;41826;53.246;-6.670;2022-07-29T02:41:09;100920.09;;;15.21;100.00
55916;BME280;41826;53.246;-6.670;2022-07-29T02:43:36;100924.91;;;15.17;100.00
55916;BME280;41826;53.246;-6.670;2022-07-29T02:46:05;100934.66;;;15.09;100.00
55916;BME280;41826;53.246;-6.670;2022-07-29T02:48:37;100938.00;;;14.94;100.00
55916;BME280;41826;53.246;-6.670;2022-07-29T02:51:12;100941.81;;;14.84;100.00
55916;BME280;41826;53.246;-6.670;2022-07-29T02:53:43;100951.19;;;14.78;100.00
55916;BME280;41826;53.246;-6.670;2022-07-29T02:56:14;100953.34;;;14.74;100.00
55916;BME280;41826;53.246;-6.670;2022-07-29T02:58:45;100960.09;;;14.61;100.00
55916;BME280;41826;53.246;-6.670;2022-07-29T03:01:15;100957.97;;;14.64;100.00
55916;BME280;41826;53.246;-6.670;2022-07-29T03:03:42;100961.56;;;14.63;100.00
55916;BME280;41826;53.246;-6.670;2022-07-29T03:06:12;100961.56;;;14.63;100.00
55916;BME280;41826;53.246;-6.670;2022-07-29T03:08:38;100965.03;;;14.56;100.00
55916;BME280;41826;53.246;-6.670;2022-07-29T03:11:04;100960.59;;;14.56;100.00
55916;BME280;41826;53.246;-6.670;2022-07-29T03:13:30;100960.94;;;14.61;100.00
55916;BME280;41826;53.246;-6.670;2022-07-29T03:15:57;100966.03;;;14.55;100.00
55916;BME280;41826;53.246;-6.670;2022-07-29T03:18:23;100967.88;;;14.54;100.00
55916;BME280;41826;53.246;-6.670;2022-07-29T03:20:49;100968.47;;;14.48;100.00
55916;BME280;41826;53.246;-6.670;2022-07-29T03:23:22;100970.81;;;14.51;100.00
55916;BME280;41826;53.246;-6.670;2022-07-29T03:25:52;100966.13;;;14.28;100.00
55916;BME280;41826;53.246;-6.670;2022-07-29T03:28:17;100966.47;;;14.34;100.00
55916;BME280;41826;53.246;-6.670;2022-07-29T03:30:43;100970.22;;;14.23;100.00
55916;BME280;41826;53.246;-6.670;2022-07-29T03:33:08;100963.81;;;14.34;100.00
55916;BME280;41826;53.246;-6.670;2022-07-29T03:35:34;100967.13;;;14.36;100.00
55916;BME280;41826;53.246;-6.670;2022-07-29T03:37:59;100968.63;;;14.38;100.00
55916;BME280;41826;53.246;-6.670;2022-07-29T03:40:31;100979.34;;;14.37;100.00
55916;BME280;41826;53.246;-6.670;2022-07-29T03:42:59;100982.31;;;14.34;100.00
55916;BME280;41826;53.246;-6.670;2022-07-29T03:45:26;100980.13;;;14.21;100.00
55916;BME280;41826;53.246;-6.670;2022-07-29T03:48:02;100981.44;;;14.25;100.00
55916;BME280;41826;53.246;-6.670;2022-07-29T03:50:30;100979.69;;;14.34;100.00
55916;BME280;41826;53.246;-6.670;2022-07-29T03:52:59;100980.94;;;14.21;100.00
55916;BME280;41826;53.246;-6.670;2022-07-29T03:55:26;100984.06;;;14.17;100.00
55916;BME280;41826;53.246;-6.670;2022-07-29T03:57:54;100987.94;;;14.30;100.00
55916;BME280;41826;53.246;-6.670;2022-07-29T04:00:22;100990.91;;;14.36;100.00
55916;BME280;41826;53.246;-6.670;2022-07-29T04:02:48;100982.81;;;14.37;100.00
55916;BME280;41826;53.246;-6.670;2022-07-29T04:05:15;100984.97;;;14.34;100.00
55916;BME280;41826;53.246;-6.670;2022-07-29T04:07:43;100985.44;;;14.29;100.00
55916;BME280;41826;53.246;-6.670;2022-07-29T04:10:09;100983.13;;;14.26;100.00
55916;BME280;41826;53.246;-6.670;2022-07-29T04:12:35;100981.66;;;14.31;100.00
55916;BME280;41826;53.246;-6.670;2022-07-29T04:15:02;100984.25;;;14.23;100.00
55916;BME280;41826;53.246;-6.670;2022-07-29T04:17:27;100986.91;;;14.23;100.00
55916;BME280;41826;53.246;-6.670;2022-07-29T04:19:52;100990.69;;;14.21;100.00
55916;BME280;41826;53.246;-6.670;2022-07-29T04:22:18;100984.28;;;14.31;100.00
55916;BME280;41826;53.246;-6.670;2022-07-29T04:24:43;100984.09;;;14.25;100.00
55916;BME280;41826;53.246;-6.670;2022-07-29T04:27:09;100986.91;;;14.23;100.00
55916;BME280;41826;53.246;-6.670;2022-07-29T04:29:34;100984.63;;;14.28;100.00
55916;BME280;41826;53.246;-6.670;2022-07-29T04:31:59;100985.09;;;14.24;100.00
55916;BME280;41826;53.246;-6.670;2022-07-29T04:34:25;100981.13;;;14.28;100.00
55916;BME280;41826;53.246;-6.670;2022-07-29T04:36:50;100981.91;;;14.20;100.00
55916;BME280;41826;53.246;-6.670;2022-07-29T04:39:15;100981.44;;;14.25;100.00
55916;BME280;41826;53.246;-6.670;2022-07-29T04:41:43;100985.22;;;14.22;100.00
55916;BME280;41826;53.246;-6.670;2022-07-29T04:44:08;100978.94;;;14.15;100.00
55916;BME280;41826;53.246;-6.670;2022-07-29T04:46:34;100973.03;;;14.21;100.00
55916;BME280;41826;53.246;-6.670;2022-07-29T04:48:59;100963.78;;;14.25;100.00
55916;BME280;41826;53.246;-6.670;2022-07-29T04:51:25;100967.41;;;14.24;100.00
55916;BME280;41826;53.246;-6.670;2022-07-29T04:53:50;100964.09;;;14.22;100.00
55916;BME280;41826;53.246;-6.670;2022-07-29T04:56:15;100959.63;;;14.15;100.00
55916;BME280;41826;53.246;-6.670;2022-07-29T04:58:41;100962.81;;;14.18;100.00
55916;BME280;41826;53.246;-6.670;2022-07-29T05:01:06;100961.78;;;14.11;100.00
55916;BME280;41826;53.246;-6.670;2022-07-29T05:03:31;100965.59;;;14.17;100.00
55916;BME280;41826;53.246;-6.670;2022-07-29T05:05:57;100966.72;;;14.14;100.00
55916;BME280;41826;53.246;-6.670;2022-07-29T05:08:22;100965.59;;;14.17;100.00
55916;BME280;41826;53.246;-6.670;2022-07-29T05:10:48;100965.44;;;14.18;100.00
55916;BME280;41826;53.246;-6.670;2022-07-29T05:13:13;100974.00;;;14.20;100.00
55916;BME280;41826;53.246;-6.670;2022-07-29T05:15:38;100965.25;;;14.12;100.00
55916;BME280;41826;53.246;-6.670;2022-07-29T05:18:04;100969.38;;;14.22;100.00
55916;BME280;41826;53.246;-6.670;2022-07-29T05:20:30;100972.22;;;14.21;100.00
55916;BME280;41826;53.246;-6.670;2022-07-29T05:22:59;100972.84;;;14.23;100.00
55916;BME280;41826;53.246;-6.670;2022-07-29T05:25:26;100977.31;;;14.22;100.00
55916;BME280;41826;53.246;-6.670;2022-07-29T05:27:52;100977.66;;;14.27;100.00
55916;BME280;41826;53.246;-6.670;2022-07-29T05:30:18;100975.38;;;14.32;100.00
55916;BME280;41826;53.246;-6.670;2022-07-29T05:32:44;100982.81;;;14.37;100.00
55916;BME280;41826;53.246;-6.670;2022-07-29T05:35:10;100987.63;;;14.42;100.00
55916;BME280;41826;53.246;-6.670;2022-07-29T05:37:35;100983.81;;;14.44;100.00
55916;BME280;41826;53.246;-6.670;2022-07-29T05:40:01;100992.41;;;14.38;100.00
55916;BME280;41826;53.246;-6.670;2022-07-29T05:42:27;100986.31;;;14.46;100.00
55916;BME280;41826;53.246;-6.670;2022-07-29T05:44:53;100989.28;;;14.51;100.00
55916;BME280;41826;53.246;-6.670;2022-07-29T05:47:18;100988.81;;;14.56;100.00
55916;BME280;41826;53.246;-6.670;2022-07-29T05:49:44;100983.38;;;14.57;100.00
55916;BME280;41826;53.246;-6.670;2022-07-29T05:52:09;100985.34;;;14.63;100.00
55916;BME280;41826;53.246;-6.670;2022-07-29T05:54:35;100989.34;;;14.67;100.00
55916;BME280;41826;53.246;-6.670;2022-07-29T05:57:01;100988.69;;;14.73;100.00
55916;BME280;41826;53.246;-6.670;2022-07-29T05:59:27;100984.72;;;14.78;100.00
55916;BME280;41826;53.246;-6.670;2022-07-29T06:01:52;100985.72;;;14.85;100.00
55916;BME280;41826;53.246;-6.670;2022-07-29T06:04:17;100982.41;;;14.91;100.00
55916;BME280;41826;53.246;-6.670;2022-07-29T06:06:43;100979.78;;;14.91;100.00
55916;BME280;41826;53.246;-6.670;2022-07-29T06:09:08;100982.75;;;14.96;100.00
55916;BME280;41826;53.246;-6.670;2022-07-29T06:11:34;100969.03;;;14.92;100.00
55916;BME280;41826;53.246;-6.670;2022-07-29T06:13:59;100960.31;;;14.84;100.00
55916;BME280;41826;53.246;-6.670;2022-07-29T06:16:24;100939.97;;;15.01;100.00
55916;BME280;41826;53.246;-6.670;2022-07-29T06:18:50;100914.81;;;15.13;100.00
55916;BME280;41826;53.246;-6.670;2022-07-29T06:21:15;100915.78;;;15.28;100.00
55916;BME280;41826;53.246;-6.670;2022-07-29T06:23:40;100918.94;;;15.32;100.00
55916;BME280;41826;53.246;-6.670;2022-07-29T06:26:06;100917.09;;;15.24;100.00
55916;BME280;41826;53.246;-6.670;2022-07-29T06:28:32;100907.03;;;15.28;100.00
55916;BME280;41826;53.246;-6.670;2022-07-29T06:30:58;100912.78;;;15.48;100.00
55916;BME280;41826;53.246;-6.670;2022-07-29T06:33:23;100922.19;;;15.50;100.00
55916;BME280;41826;53.246;-6.670;2022-07-29T06:35:49;100924.34;;;15.47;100.00
55916;BME280;41826;53.246;-6.670;2022-07-29T06:38:15;100914.91;;;15.52;100.00
55916;BME280;41826;53.246;-6.670;2022-07-29T06:40:44;100898.03;;;15.53;100.00
55916;BME280;41826;53.246;-6.670;2022-07-29T06:43:40;100899.97;;;15.59;100.00
55916;BME280;41826;53.246;-6.670;2022-07-29T06:46:14;100907.59;;;15.63;100.00
55916;BME280;41826;53.246;-6.670;2022-07-29T06:48:40;100902.97;;;15.73;100.00
55916;BME280;41826;53.246;-6.670;2022-07-29T06:51:08;100910.69;;;15.74;100.00
55916;BME280;41826;53.246;-6.670;2022-07-29T06:53:34;100917.47;;;15.77;100.00
55916;BME280;41826;53.246;-6.670;2022-07-29T06:56:00;100908.88;;;15.83;100.00
55916;BME280;41826;53.246;-6.670;2022-07-29T06:58:27;100913.81;;;15.86;100.00
55916;BME280;41826;53.246;-6.670;2022-07-29T07:00:53;100913.94;;;15.93;100.00
55916;BME280;41826;53.246;-6.670;2022-07-29T07:03:19;100911.47;;;15.91;100.00
55916;BME280;41826;53.246;-6.670;2022-07-29T07:05:45;100913.72;;;16.02;100.00
55916;BME280;41826;53.246;-6.670;2022-07-29T07:08:11;100904.44;;;16.07;100.00
55916;BME280;41826;53.246;-6.670;2022-07-29T07:10:37;100926.94;;;16.11;100.00
55916;BME280;41826;53.246;-6.670;2022-07-29T07:13:03;100927.59;;;16.04;100.00
55916;BME280;41826;53.246;-6.670;2022-07-29T07:15:29;100946.41;;;16.18;100.00
55916;BME280;41826;53.246;-6.670;2022-07-29T07:17:55;100937.34;;;16.12;100.00
55916;BME280;41826;53.246;-6.670;2022-07-29T07:20:20;100948.06;;;16.19;100.00
55916;BME280;41826;53.246;-6.670;2022-07-29T07:22:46;100947.72;;;16.22;100.00
55916;BME280;41826;53.246;-6.670;2022-07-29T07:25:12;100948.72;;;16.21;100.00
55916;BME280;41826;53.246;-6.670;2022-07-29T07:27:38;100953.97;;;16.29;100.00
55916;BME280;41826;53.246;-6.670;2022-07-29T07:30:05;100942.56;;;16.29;100.00
55916;BME280;41826;53.246;-6.670;2022-07-29T07:32:34;100939.69;;;16.38;100.00
55916;BME280;41826;53.246;-6.670;2022-07-29T07:35:00;100936.47;;;16.43;100.00
55916;BME280;41826;53.246;-6.670;2022-07-29T07:37:26;100918.34;;;16.55;100.00
55916;BME280;41826;53.246;-6.670;2022-07-29T07:39:52;100930.25;;;16.59;100.00
55916;BME280;41826;53.246;-6.670;2022-07-29T07:42:18;100934.56;;;16.60;100.00
55916;BME280;41826;53.246;-6.670;2022-07-29T07:44:44;100924.06;;;16.66;100.00
55916;BME280;41826;53.246;-6.670;2022-07-29T07:47:11;100918.78;;;16.89;100.00
55916;BME280;41826;53.246;-6.670;2022-07-29T07:49:37;100929.38;;;16.89;100.00
55916;BME280;41826;53.246;-6.670;2022-07-29T07:52:02;100934.97;;;16.95;100.00
55916;BME280;41826;53.246;-6.670;2022-07-29T07:54:28;100943.75;;;16.95;100.00
55916;BME280;41826;53.246;-6.670;2022-07-29T07:56:53;100942.28;;;16.93;100.00
55916;BME280;41826;53.246;-6.670;2022-07-29T07:59:19;100946.03;;;16.98;100.00
55916;BME280;41826;53.246;-6.670;2022-07-29T08:01:44;100938.84;;;17.07;100.00
55916;BME280;41826;53.246;-6.670;2022-07-29T08:04:09;100931.09;;;17.20;100.00
55916;BME280;41826;53.246;-6.670;2022-07-29T08:06:35;100926.78;;;17.19;100.00
55916;BME280;41826;53.246;-6.670;2022-07-29T08:09:03;100911.13;;;17.39;100.00
55916;BME280;41826;53.246;-6.670;2022-07-29T08:11:28;100917.72;;;17.43;100.00
55916;BME280;41826;53.246;-6.670;2022-07-29T08:13:54;100921.75;;;17.54;100.00
55916;BME280;41826;53.246;-6.670;2022-07-29T08:16:19;100908.09;;;17.57;100.00
55916;BME280;41826;53.246;-6.670;2022-07-29T08:18:45;100907.94;;;17.59;100.00
55916;BME280;41826;53.246;-6.670;2022-07-29T08:21:12;100914.44;;;17.56;100.00
55916;BME280;41826;53.246;-6.670;2022-07-29T08:23:37;100912.31;;;17.66;100.00
55916;BME280;41826;53.246;-6.670;2022-07-29T08:26:12;100909.84;;;17.80;100.00
55916;BME280;41826;53.246;-6.670;2022-07-29T08:28:39;100916.72;;;17.89;100.00
55916;BME280;41826;53.246;-6.670;2022-07-29T08:31:05;100904.34;;;17.96;100.00
55916;BME280;41826;53.246;-6.670;2022-07-29T08:33:31;100890.25;;;17.95;100.00
55916;BME280;41826;53.246;-6.670;2022-07-29T08:35:56;100882.22;;;18.10;100.00
55916;BME280;41826;53.246;-6.670;2022-07-29T08:38:22;100880.09;;;18.21;100.00
55916;BME280;41826;53.246;-6.670;2022-07-29T08:40:47;100878.03;;;18.23;100.00
55916;BME280;41826;53.246;-6.670;2022-07-29T08:43:12;100885.16;;;18.37;100.00
55916;BME280;41826;53.246;-6.670;2022-07-29T08:48:08;100882.38;;;18.24;100.00
55916;BME280;41826;53.246;-6.670;2022-07-29T08:50:35;100877.47;;;18.27;100.00
55916;BME280;41826;53.246;-6.670;2022-07-29T08:53:02;100876.34;;;18.15;100.00
55916;BME280;41826;53.246;-6.670;2022-07-29T08:55:28;100869.47;;;18.21;100.00
55916;BME280;41826;53.246;-6.670;2022-07-29T08:57:54;100878.81;;;18.16;100.00
55916;BME280;41826;53.246;-6.670;2022-07-29T09:00:21;100893.13;;;18.37;100.00
55916;BME280;41826;53.246;-6.670;2022-07-29T09:02:51;100888.19;;;18.34;100.00
55916;BME280;41826;53.246;-6.670;2022-07-29T09:05:21;100886.72;;;18.53;100.00
55916;BME280;41826;53.246;-6.670;2022-07-29T09:07:48;100888.25;;;18.62;100.00
55916;BME280;41826;53.246;-6.670;2022-07-29T09:10:13;100888.03;;;18.85;100.00
55916;BME280;41826;53.246;-6.670;2022-07-29T09:12:38;100880.47;;;18.82;100.00
55916;BME280;41826;53.246;-6.670;2022-07-29T09:15:05;100885.00;;;18.67;100.00
55916;BME280;41826;53.246;-6.670;2022-07-29T09:17:45;100887.66;;;18.88;100.00
55916;BME280;41826;53.246;-6.670;2022-07-29T09:20:18;100887.25;;;18.91;100.00
55916;BME280;41826;53.246;-6.670;2022-07-29T09:22:44;100889.06;;;19.12;100.00
55916;BME280;41826;53.246;-6.670;2022-07-29T09:25:14;100890.94;;;19.18;100.00
55916;BME280;41826;53.246;-6.670;2022-07-29T09:27:40;100877.56;;;19.46;100.00
55916;BME280;41826;53.246;-6.670;2022-07-29T09:30:08;100881.44;;;19.37;100.00
55916;BME280;41826;53.246;-6.670;2022-07-29T09:33:00;100881.78;;;19.34;100.00
55916;BME280;41826;53.246;-6.670;2022-07-29T09:35:27;100877.22;;;19.21;100.00
55916;BME280;41826;53.246;-6.670;2022-07-29T09:37:53;100882.91;;;19.12;100.00
55916;BME280;41826;53.246;-6.670;2022-07-29T09:42:45;100882.34;;;19.58;100.00
55916;BME280;41826;53.246;-6.670;2022-07-29T09:45:10;100882.34;;;19.58;100.00
55916;BME280;41826;53.246;-6.670;2022-07-29T09:47:45;100885.94;;;19.85;100.00
55916;BME280;41826;53.246;-6.670;2022-07-29T09:50:12;100874.34;;;20.06;100.00
55916;BME280;41826;53.246;-6.670;2022-07-29T09:52:51;100875.50;;;19.90;100.00
55916;BME280;41826;53.246;-6.670;2022-07-29T09:55:17;100872.22;;;19.81;100.00
55916;BME280;41826;53.246;-6.670;2022-07-29T09:57:43;100861.31;;;19.69;100.00
55916;BME280;41826;53.246;-6.670;2022-07-29T10:00:11;100861.38;;;19.89;100.00
55916;BME280;41826;53.246;-6.670;2022-07-29T10:02:39;100852.81;;;20.01;100.00
55916;BME280;41826;53.246;-6.670;2022-07-29T10:05:16;100858.72;;;19.89;100.00
55916;BME280;41826;53.246;-6.670;2022-07-29T10:10:24;100848.72;;;20.11;100.00
55916;BME280;41826;53.246;-6.670;2022-07-29T10:12:55;100851.63;;;20.23;100.00
55916;BME280;41826;53.246;-6.670;2022-07-29T10:15:23;100854.28;;;20.23;100.00
55916;BME280;41826;53.246;-6.670;2022-07-29T10:17:49;100855.88;;;20.04;100.00
55916;BME280;41826;53.246;-6.670;2022-07-29T10:20:15;100863.25;;;19.96;100.00
55916;BME280;41826;53.246;-6.670;2022-07-29T10:22:41;100861.63;;;20.08;100.00
55916;BME280;41826;53.246;-6.670;2022-07-29T10:25:08;100861.25;;;20.24;100.00
55916;BME280;41826;53.246;-6.670;2022-07-29T10:27:35;100856.13;;;20.36;100.00
55916;BME280;41826;53.246;-6.670;2022-07-29T10:30:01;100859.63;;;20.37;100.00
55916;BME280;41826;53.246;-6.670;2022-07-29T10:32:33;100868.22;;;20.45;100.00
55916;BME280;41826;53.246;-6.670;2022-07-29T10:35:15;100859.00;;;20.34;100.00
55916;BME280;41826;53.246;-6.670;2022-07-29T10:43:28;100857.13;;;20.22;100.00
55916;BME280;41826;53.246;-6.670;2022-07-29T10:45:59;100851.03;;;20.54;100.00
55916;BME280;41826;53.246;-6.670;2022-07-29T10:48:25;100854.72;;;20.60;100.00
55916;BME280;41826;53.246;-6.670;2022-07-29T10:50:59;100852.88;;;20.74;100.00
55916;BME280;41826;53.246;-6.670;2022-07-29T10:53:52;100855.31;;;20.89;100.00
55916;BME280;41826;53.246;-6.670;2022-07-29T10:56:29;100867.88;;;20.62;100.00
55916;BME280;41826;53.246;-6.670;2022-07-29T11:01:50;100862.50;;;21.02;100.00
55916;BME280;41826;53.246;-6.670;2022-07-29T11:04:30;100857.78;;;20.70;100.00
55916;BME280;41826;53.246;-6.670;2022-07-29T11:09:30;100850.03;;;20.69;100.00
55916;BME280;41826;53.246;-6.670;2022-07-29T11:11:59;100863.34;;;20.55;100.00
55916;BME280;41826;53.246;-6.670;2022-07-29T11:14:59;100865.56;;;20.39;100.00
55916;BME280;41826;53.246;-6.670;2022-07-29T11:17:28;100859.63;;;20.37;100.00
55916;BME280;41826;53.246;-6.670;2022-07-29T11:22:56;100856.78;;;20.71;100.00
55916;BME280;41826;53.246;-6.670;2022-07-29T11:25:21;100841.81;;;20.64;100.00
55916;BME280;41826;53.246;-6.670;2022-07-29T11:27:47;100847.50;;;20.94;100.00
55916;BME280;41826;53.246;-6.670;2022-07-29T11:30:12;100848.44;;;21.33;100.00
55916;BME280;41826;53.246;-6.670;2022-07-29T11:32:40;100847.00;;;21.30;100.00
55916;BME280;41826;53.246;-6.670;2022-07-29T11:35:22;100842.28;;;21.39;100.00
55916;BME280;41826;53.246;-6.670;2022-07-29T11:40:32;100839.19;;;21.35;100.00
55916;BME280;41826;53.246;-6.670;2022-07-29T11:42:57;100832.81;;;21.43;100.00
55916;BME280;41826;53.246;-6.670;2022-07-29T11:45:24;100837.50;;;21.54;100.00
55916;BME280;41826;53.246;-6.670;2022-07-29T11:47:56;100843.69;;;21.55;100.00
55916;BME280;41826;53.246;-6.670;2022-07-29T11:50:33;100830.00;;;21.76;100.00
55916;BME280;41826;53.246;-6.670;2022-07-29T11:53:00;100829.44;;;21.99;100.00
55916;BME280;41826;53.246;-6.670;2022-07-29T11:55:26;100828.47;;;21.87;100.00
55916;BME280;41826;53.246;-6.670;2022-07-29T11:57:59;100830.69;;;21.58;100.00
55916;BME280;41826;53.246;-6.670;2022-07-29T12:00:37;100823.84;;;21.76;100.00
55916;BME280;41826;53.246;-6.670;2022-07-29T12:03:08;100821.09;;;21.82;100.00
55916;BME280;41826;53.246;-6.670;2022-07-29T12:05:42;100824.50;;;21.64;100.00
55916;BME280;41826;53.246;-6.670;2022-07-29T12:08:13;100821.16;;;21.76;100.00
55916;BME280;41826;53.246;-6.670;2022-07-29T12:10:40;100823.38;;;21.85;100.00
55916;BME280;41826;53.246;-6.670;2022-07-29T12:13:05;100820.25;;;21.89;100.00
55916;BME280;41826;53.246;-6.670;2022-07-29T12:15:31;100822.75;;;22.15;100.00
55916;BME280;41826;53.246;-6.670;2022-07-29T12:17:57;100815.81;;;22.07;100.00
55916;BME280;41826;53.246;-6.670;2022-07-29T12:20:27;100828.56;;;21.74;100.00
55916;BME280;41826;53.246;-6.670;2022-07-29T12:22:53;100831.75;;;21.57;100.00
55916;BME280;41826;53.246;-6.670;2022-07-29T12:25:20;100841.41;;;21.52;100.00
55916;BME280;41826;53.246;-6.670;2022-07-29T12:27:46;100840.44;;;21.33;100.00
55916;BME280;41826;53.246;-6.670;2022-07-29T12:30:14;100837.34;;;21.36;100.00
55916;BME280;41826;53.246;-6.670;2022-07-29T12:32:43;100846.59;;;21.27;100.00
55916;BME280;41826;53.246;-6.670;2022-07-29T12:35:13;100838.06;;;20.91;100.00
55916;BME280;41826;53.246;-6.670;2022-07-29T12:37:40;100844.03;;;20.87;100.00
55916;BME280;41826;53.246;-6.670;2022-07-29T12:40:08;100836.44;;;20.97;100.00
55916;BME280;41826;53.246;-6.670;2022-07-29T12:42:34;100831.09;;;20.97;100.00
55916;BME280;41826;53.246;-6.670;2022-07-29T12:45:00;100838.69;;;21.00;100.00
55916;BME280;41826;53.246;-6.670;2022-07-29T12:47:27;100826.09;;;21.20;100.00
55916;BME280;41826;53.246;-6.670;2022-07-29T12:50:09;100824.59;;;21.38;100.00
55916;BME280;41826;53.246;-6.670;2022-07-29T12:52:35;100834.47;;;21.31;100.00
55916;BME280;41826;53.246;-6.670;2022-07-29T12:55:01;100825.63;;;21.43;100.00
55916;BME280;41826;53.246;-6.670;2022-07-29T12:57:27;100824.34;;;21.53;100.00
55916;BME280;41826;53.246;-6.670;2022-07-29T13:02:33;100824.91;;;21.10;100.00
55916;BME280;41826;53.246;-6.670;2022-07-29T13:05:00;100826.66;;;21.42;100.00
55916;BME280;41826;53.246;-6.670;2022-07-29T13:07:28;100823.38;;;21.34;100.00